createdAt,value
2019-02-03T00:04:53.047Z,174.25
2019-02-03T00:07:21.514Z,169.82
2019-02-03T00:09:50.193Z,161.68
2019-02-03T00:12:18.615Z,168.35
2019-02-03T00:14:47.036Z,177.85
2019-02-03T00:17:15.688Z,168.57
2019-02-03T00:19:44.106Z,170.97
2019-02-03T00:22:12.523Z,172.50
2019-02-03T00:24:41.157Z,171.20
2019-02-03T00:27:09.842Z,175.78
2019-02-03T00:29:38.258Z,176.27
2019-02-03T00:32:06.777Z,163.35
2019-02-03T00:34:35.194Z,161.00
2019-02-03T00:37:14.892Z,173.97
2019-02-03T00:39:33.876Z,173.78
2019-02-03T00:42:04.057Z,172.13
2019-02-03T00:44:32.458Z,179.93
2019-02-03T00:47:00.880Z,184.05
2019-02-03T00:49:29.539Z,170.70
2019-02-03T00:51:57.940Z,185.25
2019-02-03T00:54:26.590Z,186.80
2019-02-03T00:56:55.289Z,197.37
2019-02-03T00:59:23.704Z,187.53
2019-02-03T01:01:52.104Z,190.22
2019-02-03T01:04:20.668Z,187.88
2019-02-03T01:06:49.136Z,208.43
2019-02-03T01:09:38.589Z,205.35
2019-02-03T01:12:07.005Z,191.32
2019-02-03T01:14:35.473Z,182.22
2019-02-03T01:17:04.197Z,199.02
2019-02-03T01:19:32.592Z,175.07
2019-02-03T01:22:00.996Z,185.52
2019-02-03T01:24:29.407Z,179.35
2019-02-03T01:26:57.808Z,184.05
2019-02-03T01:29:26.232Z,186.20
2019-02-03T01:31:54.633Z,173.80
2019-02-03T01:34:23.034Z,180.90
2019-02-03T01:36:51.692Z,166.77
2019-02-03T01:39:20.360Z,159.37
2019-02-03T01:41:49.046Z,153.75
2019-02-03T01:44:17.460Z,169.13
2019-02-03T01:46:45.931Z,167.70
2019-02-03T01:49:16.071Z,155.95
2019-02-03T01:51:44.811Z,162.30
2019-02-03T01:54:53.139Z,143.78
2019-02-03T01:57:21.543Z,163.12
2019-02-03T01:59:49.939Z,180.45
2019-02-03T02:02:18.355Z,152.17
2019-02-03T02:04:46.755Z,171.60
2019-02-03T02:07:15.180Z,177.68
2019-02-03T02:09:43.575Z,155.72
2019-02-03T02:12:11.974Z,157.85
2019-02-03T02:14:40.388Z,159.85
2019-02-03T02:17:08.786Z,160.43
2019-02-03T02:19:37.263Z,140.30
2019-02-03T02:22:06.214Z,147.20
2019-02-03T02:24:34.719Z,166.40
2019-02-03T02:27:03.383Z,165.62
2019-02-03T02:29:32.071Z,163.90
2019-02-03T02:32:00.845Z,156.97
2019-02-03T02:34:29.649Z,174.53
2019-02-03T02:36:58.059Z,156.02
2019-02-03T02:39:26.457Z,149.25
2019-02-03T02:41:54.859Z,150.82
2019-02-03T02:44:42.608Z,156.18
2019-02-03T02:47:11.303Z,160.88
2019-02-03T02:49:39.719Z,164.72
2019-02-03T02:52:08.569Z,143.87
2019-02-03T02:54:37.258Z,151.57
2019-02-03T02:57:05.672Z,149.95
2019-02-03T02:59:34.065Z,156.95
2019-02-03T03:02:02.484Z,148.75
2019-02-03T03:04:31.185Z,169.43
2019-02-03T03:06:59.578Z,149.62
2019-02-03T03:09:28.247Z,155.75
2019-02-03T03:11:56.651Z,172.78
2019-02-03T03:14:25.069Z,142.32
2019-02-03T03:16:53.471Z,161.43
2019-02-03T03:19:22.174Z,165.70
2019-02-03T03:21:50.857Z,158.63
2019-02-03T03:24:19.546Z,173.82
2019-02-03T03:26:48.035Z,174.62
2019-02-03T03:29:16.669Z,163.72
2019-02-03T03:31:45.397Z,157.27
2019-02-03T03:34:13.806Z,169.25
2019-02-03T03:36:42.456Z,170.12
2019-02-03T03:39:51.025Z,168.07
2019-02-03T03:42:39.014Z,165.30
2019-02-03T03:45:47.325Z,164.00
2019-02-03T03:48:15.718Z,172.43
2019-02-03T03:50:44.137Z,143.32
2019-02-03T03:53:31.870Z,150.45
2019-02-03T03:56:02.007Z,165.05
2019-02-03T03:58:30.401Z,158.70
2019-02-03T04:04:05.995Z,143.65
2019-02-03T04:06:34.400Z,164.00
2019-02-03T04:11:42.396Z,133.75
2019-02-03T04:14:10.835Z,126.02
2019-02-03T04:16:58.573Z,139.47
2019-02-03T04:19:26.972Z,128.70
2019-02-03T04:21:55.393Z,138.12
2019-02-03T04:24:23.781Z,139.40
2019-02-03T04:26:54.171Z,136.50
2019-02-03T04:29:22.577Z,131.20
2019-02-03T04:31:51.042Z,129.35
2019-02-03T04:34:19.716Z,125.80
2019-02-03T04:36:48.117Z,128.87
2019-02-03T04:39:16.516Z,117.75
2019-02-03T04:41:44.989Z,113.72
2019-02-03T04:44:13.387Z,134.80
2019-02-03T04:46:41.799Z,117.03
2019-02-03T04:49:10.203Z,134.25
2019-02-03T04:51:38.589Z,120.72
2019-02-03T04:54:07.077Z,129.05
2019-02-03T04:56:35.761Z,129.10
2019-02-03T04:59:04.214Z,145.60
2019-02-03T05:01:32.613Z,141.57
2019-02-03T05:04:01.017Z,155.30
2019-02-03T05:06:29.425Z,129.38
2019-02-03T05:09:10.362Z,126.22
2019-02-03T05:11:27.974Z,126.12
2019-02-03T05:13:56.355Z,118.75
2019-02-03T05:16:25.024Z,117.37
2019-02-03T05:18:53.418Z,116.60
2019-02-03T05:21:21.891Z,124.53
2019-02-03T05:23:52.304Z,129.40
2019-02-03T05:26:21.031Z,119.62
2019-02-03T05:28:49.421Z,132.55
2019-02-03T05:31:18.164Z,139.43
2019-02-03T05:33:46.575Z,120.72
2019-02-03T05:36:14.994Z,138.12
2019-02-03T05:38:45.446Z,109.83
2019-02-03T05:41:14.136Z,111.40
2019-02-03T05:43:42.822Z,109.80
2019-02-03T05:46:11.227Z,120.92
2019-02-03T05:48:39.893Z,146.87
2019-02-03T05:51:08.570Z,120.45
2019-02-03T05:53:38.690Z,115.75
2019-02-03T05:56:07.375Z,115.05
2019-02-03T05:58:35.771Z,106.83
2019-02-03T06:03:59.220Z,124.53
2019-02-03T06:06:27.921Z,135.75
2019-02-03T06:08:56.378Z,124.62
2019-02-03T06:11:25.090Z,123.90
2019-02-03T06:13:53.482Z,121.00
2019-02-03T06:16:23.600Z,116.77
2019-02-03T06:18:59.237Z,123.97
2019-02-03T06:21:27.925Z,128.23
2019-02-03T06:23:56.613Z,134.43
2019-02-03T06:26:25.013Z,135.88
2019-02-03T06:28:53.422Z,126.18
2019-02-03T06:31:21.810Z,131.85
2019-02-03T06:34:30.126Z,121.13
2019-02-03T06:36:58.806Z,128.55
2019-02-03T06:39:27.209Z,142.10
2019-02-03T06:41:55.604Z,137.95
2019-02-03T06:44:24.014Z,152.95
2019-02-03T06:49:41.582Z,151.53
2019-02-03T06:52:10.118Z,147.57
2019-02-03T06:54:38.826Z,140.07
2019-02-03T06:57:07.264Z,159.67
2019-02-03T06:59:35.653Z,156.15
2019-02-03T07:02:45.745Z,171.00
2019-02-03T07:05:14.140Z,174.82
2019-02-03T07:07:42.558Z,188.90
2019-02-03T07:10:51.100Z,151.57
2019-02-03T07:13:19.781Z,170.53
2019-02-03T07:15:49.896Z,200.18
2019-02-03T07:18:18.285Z,186.35
2019-02-03T07:20:46.695Z,178.27
2019-02-03T07:23:15.090Z,198.23
2019-02-03T07:25:43.502Z,187.47
2019-02-03T07:28:11.977Z,186.73
2019-02-03T07:30:40.789Z,221.32
2019-02-03T07:33:09.192Z,203.77
2019-02-03T07:35:37.598Z,225.93
2019-02-03T07:38:06.334Z,206.35
2019-02-03T07:40:34.742Z,224.90
2019-02-03T07:43:03.397Z,215.68
2019-02-03T07:45:31.793Z,227.62
2019-02-03T07:48:00.193Z,226.88
2019-02-03T07:50:28.602Z,235.97
2019-02-03T07:52:57.011Z,234.27
2019-02-03T07:55:25.406Z,247.37
2019-02-03T07:57:54.081Z,223.43
2019-02-03T08:00:22.651Z,252.55
2019-02-03T08:02:51.353Z,240.87
2019-02-03T08:05:19.819Z,256.00
2019-02-03T08:07:48.222Z,262.63
2019-02-03T08:10:56.783Z,272.25
2019-02-03T08:13:25.523Z,258.15
2019-02-03T08:15:53.920Z,245.73
2019-02-03T08:18:22.331Z,269.27
2019-02-03T08:20:50.721Z,250.60
2019-02-03T08:23:19.109Z,253.02
2019-02-03T08:25:47.520Z,274.58
2019-02-03T08:28:15.916Z,271.93
2019-02-03T08:30:44.330Z,284.75
2019-02-03T08:33:12.727Z,284.75
2019-02-03T08:35:41.438Z,263.52
2019-02-03T08:38:10.126Z,269.05
2019-02-03T08:40:38.828Z,286.12
2019-02-03T08:43:07.233Z,291.65
2019-02-03T08:45:35.836Z,247.22
2019-02-03T08:48:23.822Z,288.87
2019-02-03T08:50:52.498Z,256.73
2019-02-03T08:53:20.902Z,283.17
2019-02-03T08:56:08.941Z,266.60
2019-02-03T08:58:39.341Z,286.77
2019-02-03T09:01:08.029Z,255.25
2019-02-03T09:03:55.779Z,262.82
2019-02-03T09:06:24.180Z,235.53
2019-02-03T09:09:13.642Z,222.98
2019-02-03T09:11:42.032Z,219.53
2019-02-03T09:14:10.426Z,206.05
2019-02-03T09:16:38.897Z,195.97
2019-02-03T09:19:07.293Z,171.15
2019-02-03T09:21:35.941Z,165.90
2019-02-03T09:27:12.418Z,153.38
2019-02-03T09:29:40.865Z,156.45
2019-02-03T09:32:11.255Z,176.80
2019-02-03T09:34:39.694Z,166.25
2019-02-03T09:37:08.228Z,154.63
2019-02-03T09:39:36.635Z,168.32
2019-02-03T09:42:06.813Z,187.12
2019-02-03T09:44:35.561Z,165.37
2019-02-03T09:50:52.186Z,151.37
2019-02-03T09:53:20.583Z,158.45
2019-02-03T09:55:50.957Z,144.50
2019-02-03T09:58:19.355Z,145.05
2019-02-03T10:00:48.171Z,139.95
2019-02-03T10:03:56.483Z,137.40
2019-02-03T10:06:25.130Z,150.60
2019-02-03T10:08:53.527Z,128.87
2019-02-03T10:11:23.001Z,131.32
2019-02-03T10:13:52.049Z,136.72
2019-02-03T10:16:20.466Z,127.35
2019-02-03T10:18:48.917Z,123.25
2019-02-03T10:21:17.331Z,142.93
2019-02-03T10:23:45.715Z,119.70
2019-02-03T10:26:14.105Z,125.07
2019-02-03T10:28:42.516Z,112.80
2019-02-03T10:31:10.910Z,116.47
2019-02-03T10:33:39.303Z,116.15
2019-02-03T10:36:07.711Z,123.97
2019-02-03T10:38:36.107Z,122.02
2019-02-03T10:41:04.583Z,117.77
2019-02-03T10:43:33.207Z,115.37
2019-02-03T10:46:03.852Z,120.22
2019-02-03T10:48:32.249Z,100.95
2019-02-03T10:51:00.644Z,98.12
2019-02-03T10:53:29.040Z,92.35
2019-02-03T10:55:57.442Z,96.08
2019-02-03T10:58:25.834Z,99.52
2019-02-03T11:00:55.241Z,78.78
2019-02-03T11:03:24.495Z,85.42
2019-02-03T11:06:32.788Z,85.42
2019-02-03T11:09:20.307Z,96.82
2019-02-03T11:11:48.694Z,86.78
2019-02-03T11:14:17.097Z,77.27
2019-02-03T11:16:45.486Z,71.42
2019-02-03T11:19:13.883Z,66.22
2019-02-03T11:21:43.996Z,65.32
2019-02-03T11:24:12.708Z,73.00
2019-02-03T11:26:41.106Z,83.47
2019-02-03T11:29:09.496Z,66.75
2019-02-03T11:31:38.140Z,63.30
2019-02-03T11:34:06.784Z,81.72
2019-02-03T11:36:35.176Z,81.42
2019-02-03T11:39:45.261Z,71.28
2019-02-03T11:42:13.668Z,102.22
2019-02-03T11:44:42.169Z,87.45
2019-02-03T11:47:10.539Z,92.08
2019-02-03T11:49:39.183Z,91.97
2019-02-03T11:52:07.639Z,99.45
2019-02-03T11:54:36.347Z,83.47
2019-02-03T11:57:44.909Z,94.87
2019-02-03T12:00:53.205Z,86.55
2019-02-03T12:03:21.974Z,76.87
2019-02-03T12:05:50.357Z,85.42
2019-02-03T12:08:18.823Z,89.72
2019-02-03T12:10:47.288Z,76.72
2019-02-03T12:16:11.885Z,80.90
2019-02-03T12:18:40.611Z,74.25
2019-02-03T12:21:09.296Z,79.65
2019-02-03T12:23:37.687Z,77.50
2019-02-03T12:26:06.847Z,84.92
2019-02-03T12:28:36.592Z,69.80
2019-02-03T12:31:04.959Z,91.10
2019-02-03T12:33:33.652Z,70.42
2019-02-03T12:36:03.829Z,71.40
2019-02-03T12:38:32.464Z,79.65
2019-02-03T12:41:00.851Z,79.97
2019-02-03T12:43:29.522Z,69.72
2019-02-03T12:45:57.903Z,77.58
2019-02-03T12:48:26.453Z,78.50
2019-02-03T12:50:56.704Z,80.42
2019-02-03T12:53:25.387Z,70.97
2019-02-03T12:55:53.791Z,74.75
2019-02-03T12:58:22.455Z,72.25
2019-02-03T13:00:50.860Z,70.22
2019-02-03T13:03:19.736Z,72.65
2019-02-03T13:05:50.151Z,74.92
2019-02-03T13:08:18.835Z,65.62
2019-02-03T13:10:47.230Z,62.27
2019-02-03T13:13:34.969Z,80.80
2019-02-03T13:16:25.788Z,63.40
2019-02-03T13:18:54.436Z,67.03
2019-02-03T13:21:22.899Z,71.90
2019-02-03T13:23:51.309Z,68.85
2019-02-03T13:26:22.738Z,83.75
2019-02-03T13:28:51.840Z,96.82
2019-02-03T13:31:20.250Z,78.15
2019-02-03T13:33:48.637Z,85.40
2019-02-03T13:36:36.389Z,91.80
2019-02-03T13:39:44.670Z,86.40
2019-02-03T13:42:13.744Z,93.97
2019-02-03T13:44:42.381Z,85.45
2019-02-03T13:47:10.773Z,94.50
2019-02-03T13:49:39.497Z,94.03
2019-02-03T13:52:08.029Z,90.80
2019-02-03T13:54:36.435Z,104.32
2019-02-03T13:57:06.929Z,99.07
2019-02-03T13:59:35.339Z,99.90
2019-02-03T14:02:04.076Z,105.67
2019-02-03T14:04:32.737Z,101.70
2019-02-03T14:07:01.146Z,106.30
2019-02-03T14:09:29.544Z,110.85
2019-02-03T14:11:58.029Z,97.78
2019-02-03T14:14:26.418Z,98.70
2019-02-03T14:16:54.829Z,119.13
2019-02-03T14:19:23.360Z,92.97
2019-02-03T14:21:51.693Z,88.92
2019-02-03T14:24:21.822Z,85.80
2019-02-03T14:26:50.206Z,85.38
2019-02-03T14:29:18.620Z,106.67
2019-02-03T14:31:47.011Z,110.32
2019-02-03T14:34:15.401Z,106.55
2019-02-03T14:36:44.119Z,94.35
2019-02-03T14:39:12.757Z,103.32
2019-02-03T14:41:41.166Z,104.83
2019-02-03T14:44:09.977Z,114.75
2019-02-03T14:46:38.381Z,85.32
2019-02-03T14:49:06.813Z,99.20
2019-02-03T14:51:35.224Z,108.65
2019-02-03T14:54:05.486Z,112.17
2019-02-03T14:56:33.882Z,127.27
2019-02-03T14:59:02.600Z,99.07
2019-02-03T15:01:31.056Z,110.78
2019-02-03T15:03:59.470Z,123.85
2019-02-03T15:06:27.866Z,114.50
2019-02-03T15:08:56.527Z,103.72
2019-02-03T15:11:24.934Z,112.97
2019-02-03T15:13:53.467Z,115.42
2019-02-03T15:16:21.877Z,109.22
2019-02-03T15:18:50.554Z,98.87
2019-02-03T15:21:19.212Z,116.93
2019-02-03T15:23:47.925Z,107.60
2019-02-03T15:26:16.339Z,114.80
2019-02-03T15:28:44.734Z,124.65
2019-02-03T15:31:13.199Z,124.38
2019-02-03T15:33:41.602Z,105.00
2019-02-03T15:36:11.778Z,109.12
2019-02-03T15:38:40.185Z,107.10
2019-02-03T15:41:08.831Z,119.20
2019-02-03T15:43:37.244Z,116.55
2019-02-03T15:46:07.936Z,100.47
2019-02-03T15:48:36.219Z,117.50
2019-02-03T15:51:04.694Z,113.68
2019-02-03T15:53:33.087Z,109.97
2019-02-03T15:56:01.494Z,117.08
2019-02-03T15:58:29.895Z,121.65
2019-02-03T16:00:58.622Z,119.25
2019-02-03T16:03:27.308Z,123.90
2019-02-03T16:05:55.796Z,110.05
2019-02-03T16:08:24.477Z,118.00
2019-02-03T16:10:52.944Z,120.57
2019-02-03T16:13:21.643Z,122.80
2019-02-03T16:16:29.957Z,125.35
2019-02-03T16:18:58.366Z,122.80
2019-02-03T16:21:26.835Z,107.32
2019-02-03T16:23:55.603Z,124.65
2019-02-03T16:26:25.933Z,101.72
2019-02-03T16:28:54.339Z,107.22
2019-02-03T16:31:22.729Z,124.27
2019-02-03T16:33:51.129Z,108.60
2019-02-03T16:36:19.538Z,112.52
2019-02-03T16:38:47.931Z,117.03
2019-02-03T16:41:16.347Z,109.03
2019-02-03T16:43:48.975Z,103.78
2019-02-03T16:46:15.418Z,104.83
2019-02-03T16:48:43.854Z,112.05
2019-02-03T16:51:12.216Z,103.80
2019-02-03T16:53:42.347Z,118.15
2019-02-03T16:56:12.463Z,104.25
2019-02-03T16:58:40.886Z,109.07
2019-02-03T17:01:09.344Z,114.95
2019-02-03T17:03:38.117Z,120.40
2019-02-03T17:06:06.751Z,124.92
2019-02-03T17:08:35.145Z,97.33
2019-02-03T17:11:05.647Z,100.82
2019-02-03T17:13:34.247Z,103.07
2019-02-03T17:16:03.038Z,93.00
2019-02-03T17:18:31.435Z,93.60
2019-02-03T17:21:02.416Z,93.40
2019-02-03T17:23:30.317Z,94.65
2019-02-03T17:26:40.364Z,83.30
2019-02-03T17:29:08.755Z,113.17
2019-02-03T17:31:37.226Z,86.67
2019-02-03T17:34:05.716Z,84.92
2019-02-03T17:36:34.401Z,92.00
2019-02-03T17:41:38.356Z,96.60
2019-02-03T17:44:46.664Z,89.92
2019-02-03T17:47:15.324Z,81.37
2019-02-03T17:49:44.040Z,86.95
2019-02-03T17:52:14.141Z,79.37
2019-02-03T17:54:42.533Z,88.45
2019-02-03T17:57:11.200Z,94.40
2019-02-03T17:59:39.612Z,94.70
2019-02-03T18:02:08.079Z,90.62
2019-02-03T18:04:36.739Z,82.72
2019-02-03T18:07:05.733Z,75.70
2019-02-03T18:09:34.405Z,84.90
2019-02-03T18:12:03.117Z,80.12
2019-02-03T18:14:31.512Z,74.60
2019-02-03T18:17:00.177Z,80.55
2019-02-03T18:19:28.580Z,77.72
2019-02-03T18:21:58.691Z,85.05
2019-02-03T18:24:27.362Z,77.70
2019-02-03T18:26:55.756Z,77.80
2019-02-03T18:29:24.149Z,84.03
2019-02-03T18:31:52.552Z,76.42
2019-02-03T18:34:21.188Z,74.95
2019-02-03T18:36:50.171Z,78.80
2019-02-03T18:42:07.820Z,73.00
2019-02-03T18:44:36.438Z,58.55
2019-02-03T18:47:06.728Z,78.20
2019-02-03T18:49:35.212Z,76.37
2019-02-03T18:52:03.601Z,71.40
2019-02-03T18:54:31.993Z,81.25
2019-02-03T18:57:00.462Z,87.65
2019-02-03T18:59:28.862Z,66.57
2019-02-03T19:01:59.253Z,81.63
2019-02-03T19:04:27.641Z,61.98
2019-02-03T19:06:56.334Z,64.15
2019-02-03T19:09:24.745Z,70.17
2019-02-03T19:11:53.138Z,54.98
2019-02-03T19:14:21.530Z,62.27
2019-02-03T19:16:51.889Z,59.48
2019-02-03T19:19:20.282Z,54.25
2019-02-03T19:21:48.691Z,58.20
2019-02-03T19:24:17.428Z,59.58
2019-02-03T19:26:46.118Z,53.28
2019-02-03T19:29:14.501Z,49.75
2019-02-03T19:31:42.981Z,53.45
2019-02-03T19:34:11.428Z,47.62
2019-02-03T19:36:39.916Z,43.08
2019-02-03T19:39:48.478Z,41.77
2019-02-03T19:42:17.265Z,44.98
2019-02-03T19:44:45.699Z,47.83
2019-02-03T19:47:14.062Z,37.40
2019-02-03T19:49:46.561Z,40.35
2019-02-03T19:52:13.056Z,37.15
2019-02-03T19:54:42.116Z,35.48
2019-02-03T19:57:30.553Z,41.33
2019-02-03T19:59:59.347Z,31.40
2019-02-03T20:02:27.758Z,43.30
2019-02-03T20:04:56.508Z,32.65
2019-02-03T20:07:24.965Z,40.33
2019-02-03T20:09:53.361Z,36.85
2019-02-03T20:12:24.155Z,34.00
2019-02-03T20:14:51.981Z,40.20
2019-02-03T20:17:20.506Z,35.00
2019-02-03T20:19:49.283Z,40.17
2019-02-03T20:22:18.154Z,38.80
2019-02-03T20:24:46.560Z,34.30
2019-02-03T20:27:15.176Z,40.73
2019-02-03T20:29:43.891Z,45.70
2019-02-03T20:32:12.306Z,41.08
2019-02-03T20:34:40.700Z,40.50
2019-02-03T20:37:09.553Z,36.10
2019-02-03T20:39:38.597Z,41.77
2019-02-03T20:42:07.333Z,36.68
2019-02-03T20:44:56.565Z,45.52
2019-02-03T20:47:24.981Z,42.35
2019-02-03T20:49:53.380Z,41.45
2019-02-03T20:55:23.118Z,40.63
2019-02-03T20:57:51.585Z,38.40
2019-02-03T21:00:59.930Z,35.70
2019-02-03T21:03:28.434Z,33.67
2019-02-03T21:05:56.808Z,31.05
2019-02-03T21:08:25.519Z,32.28
2019-02-03T21:10:53.922Z,34.60
2019-02-03T21:13:22.314Z,38.00
2019-02-03T21:15:52.425Z,53.50
2019-02-03T21:18:21.178Z,32.33
2019-02-03T21:20:49.565Z,37.05
2019-02-03T21:25:53.705Z,33.02
2019-02-03T21:28:22.111Z,32.13
2019-02-03T21:30:50.503Z,33.83
2019-02-03T21:33:18.914Z,28.27
2019-02-03T21:35:47.377Z,27.37
2019-02-03T21:38:16.092Z,30.32
2019-02-03T21:40:44.494Z,25.65
2019-02-03T21:43:12.886Z,29.32
2019-02-03T21:45:44.760Z,29.00
2019-02-03T21:48:11.405Z,29.30
2019-02-03T21:50:39.804Z,26.82
2019-02-03T21:53:08.512Z,31.23
2019-02-03T21:55:56.258Z,22.75
2019-02-03T21:58:24.651Z,27.25
2019-02-03T22:00:53.306Z,30.25
2019-02-03T22:03:21.945Z,27.50
2019-02-03T22:05:50.393Z,36.38
2019-02-03T22:08:19.064Z,24.85
2019-02-03T22:10:47.700Z,29.70
2019-02-03T22:13:16.099Z,34.88
2019-02-03T22:15:55.065Z,29.25
2019-02-03T22:18:14.635Z,24.52
2019-02-03T22:20:43.028Z,27.13
2019-02-03T22:23:11.442Z,34.08
2019-02-03T22:25:40.069Z,29.27
2019-02-03T22:28:08.457Z,26.27
2019-02-03T22:31:16.776Z,28.47
2019-02-03T22:33:45.448Z,27.55
2019-02-03T22:36:14.132Z,27.82
2019-02-03T22:38:42.525Z,28.17
2019-02-03T22:41:10.916Z,25.35
2019-02-03T22:43:39.326Z,27.75
2019-02-03T22:46:09.800Z,30.45
2019-02-03T22:48:38.201Z,29.63
2019-02-03T22:51:06.729Z,29.82
2019-02-03T22:53:35.448Z,30.40
2019-02-03T22:56:23.181Z,29.50
2019-02-03T22:58:51.585Z,27.20
2019-02-03T23:02:00.117Z,31.27
2019-02-03T23:04:28.518Z,25.15
2019-02-03T23:06:56.910Z,26.73
2019-02-03T23:12:44.426Z,48.50
2019-02-03T23:15:12.974Z,26.73
2019-02-03T23:17:41.654Z,23.65
2019-02-03T23:20:49.961Z,30.80
2019-02-03T23:23:18.355Z,29.75
2019-02-03T23:25:46.762Z,28.25
2019-02-03T23:28:15.155Z,27.45
2019-02-03T23:30:43.722Z,24.92
2019-02-03T23:33:12.143Z,29.15
2019-02-03T23:35:40.515Z,31.27
2019-02-03T23:38:08.982Z,28.12
2019-02-03T23:40:37.380Z,27.48
2019-02-03T23:43:25.127Z,28.02
2019-02-03T23:45:53.522Z,33.53
2019-02-03T23:48:41.561Z,30.92
2019-02-03T23:51:10.256Z,33.58
2019-02-03T23:53:38.646Z,25.32
2019-02-03T23:56:07.049Z,26.33
2019-02-03T23:58:35.689Z,30.97
